sensor_id;sensor_type;location;lat;lon;timestamp;P1;P2;P0
73749;PMS7003;62058;48.406;-4.514;2023-04-24T00:02:24;0.67;0.67;0.67
73749;PMS7003;62058;48.406;-4.514;2023-04-24T00:04:50;3.00;1.00;1.00
73749;PMS7003;62058;48.406;-4.514;2023-04-24T00:07:16;3.75;0.75;0.75
73749;PMS7003;62058;48.406;-4.514;2023-04-24T00:09:42;1.00;0.00;0.00
73749;PMS7003;62058;48.406;-4.514;2023-04-24T00:12:07;1.00;1.00;1.00
73749;PMS7003;62058;48.406;-4.514;2023-04-24T00:14:32;0.75;0.00;0.00
73749;PMS7003;62058;48.406;-4.514;2023-04-24T00:16:58;0.33;0.33;0.33
73749;PMS7003;62058;48.406;-4.514;2023-04-24T00:19:41;1.50;0.25;0.25
73749;PMS7003;62058;48.406;-4.514;2023-04-24T00:22:07;2.00;0.00;0.00
73749;PMS7003;62058;48.406;-4.514;2023-04-24T00:24:32;5.25;1.00;1.00
73749;PMS7003;62058;48.406;-4.514;2023-04-24T00:26:58;0.00;0.00;0.00
73749;PMS7003;62058;48.406;-4.514;2023-04-24T00:29:23;5.00;2.50;2.50
73749;PMS7003;62058;48.406;-4.514;2023-04-24T00:31:48;0.00;0.00;0.00
73749;PMS7003;62058;48.406;-4.514;2023-04-24T00:34:13;5.33;0.67;0.67
73749;PMS7003;62058;48.406;-4.514;2023-04-24T00:36:39;1.00;1.00;1.00
73749;PMS7003;62058;48.406;-4.514;2023-04-24T00:39:05;1.00;1.00;1.00
73749;PMS7003;62058;48.406;-4.514;2023-04-24T00:41:30;0.67;0.67;0.67
73749;PMS7003;62058;48.406;-4.514;2023-04-24T00:43:55;3.67;1.00;1.00
73749;PMS7003;62058;48.406;-4.514;2023-04-24T00:46:21;4.75;1.00;1.00
73749;PMS7003;62058;48.406;-4.514;2023-04-24T00:48:46;1.00;1.00;1.00
73749;PMS7003;62058;48.406;-4.514;2023-04-24T00:51:11;3.00;0.00;0.00
73749;PMS7003;62058;48.406;-4.514;2023-04-24T00:53:37;0.00;0.00;0.00
73749;PMS7003;62058;48.406;-4.514;2023-04-24T00:56:02;0.00;0.00;0.00
73749;PMS7003;62058;48.406;-4.514;2023-04-24T00:58:28;3.00;0.75;0.75
73749;PMS7003;62058;48.406;-4.514;2023-04-24T01:00:53;1.00;1.00;1.00
73749;PMS7003;62058;48.406;-4.514;2023-04-24T01:03:22;1.50;1.00;1.00
73749;PMS7003;62058;48.406;-4.514;2023-04-24T01:05:49;0.50;0.50;0.50
73749;PMS7003;62058;48.406;-4.514;2023-04-24T01:08:15;0.75;0.25;0.25
73749;PMS7003;62058;48.406;-4.514;2023-04-24T01:10:40;2.25;0.00;0.00
73749;PMS7003;62058;48.406;-4.514;2023-04-24T01:13:06;1.00;1.00;1.00
73749;PMS7003;62058;48.406;-4.514;2023-04-24T01:15:32;2.25;0.75;0.75
73749;PMS7003;62058;48.406;-4.514;2023-04-24T01:17:57;1.00;1.00;1.00
73749;PMS7003;62058;48.406;-4.514;2023-04-24T01:20:22;0.67;0.67;0.67
73749;PMS7003;62058;48.406;-4.514;2023-04-24T01:22:50;4.00;3.00;3.00
73749;PMS7003;62058;48.406;-4.514;2023-04-24T01:25:16;1.00;1.00;1.00
73749;PMS7003;62058;48.406;-4.514;2023-04-24T01:27:41;3.67;0.00;0.00
73749;PMS7003;62058;48.406;-4.514;2023-04-24T01:30:07;1.00;1.00;1.00
73749;PMS7003;62058;48.406;-4.514;2023-04-24T01:32:32;0.00;0.00;0.00
73749;PMS7003;62058;48.406;-4.514;2023-04-24T01:34:58;2.50;0.75;0.75
73749;PMS7003;62058;48.406;-4.514;2023-04-24T01:37:23;1.00;1.00;1.00
73749;PMS7003;62058;48.406;-4.514;2023-04-24T01:39:48;0.50;0.50;0.50
73749;PMS7003;62058;48.406;-4.514;2023-04-24T01:42:13;0.67;0.67;0.67
73749;PMS7003;62058;48.406;-4.514;2023-04-24T01:44:39;0.50;0.50;0.50
73749;PMS7003;62058;48.406;-4.514;2023-04-24T01:47:05;0.50;0.00;0.00
73749;PMS7003;62058;48.406;-4.514;2023-04-24T01:49:31;0.00;0.00;0.00
73749;PMS7003;62058;48.406;-4.514;2023-04-24T01:51:56;2.50;1.00;1.00
73749;PMS7003;62058;48.406;-4.514;2023-04-24T01:54:21;2.33;2.33;2.33
73749;PMS7003;62058;48.406;-4.514;2023-04-24T01:56:47;3.67;1.00;1.00
73749;PMS7003;62058;48.406;-4.514;2023-04-24T01:59:12;5.33;1.00;1.00
73749;PMS7003;62058;48.406;-4.514;2023-04-24T02:01:38;1.50;0.25;0.25
73749;PMS7003;62058;48.406;-4.514;2023-04-24T02:04:06;3.00;0.25;0.00
73749;PMS7003;62058;48.406;-4.514;2023-04-24T02:06:32;4.75;2.50;2.50
73749;PMS7003;62058;48.406;-4.514;2023-04-24T02:08:58;2.50;1.00;1.00
73749;PMS7003;62058;48.406;-4.514;2023-04-24T02:11:23;5.75;1.00;1.00
73749;PMS7003;62058;48.406;-4.514;2023-04-24T02:13:49;0.75;0.75;0.75
73749;PMS7003;62058;48.406;-4.514;2023-04-24T02:16:15;1.00;1.00;1.00
73749;PMS7003;62058;48.406;-4.514;2023-04-24T02:18:40;0.25;0.25;0.25
73749;PMS7003;62058;48.406;-4.514;2023-04-24T02:21:05;6.67;1.00;1.00
73749;PMS7003;62058;48.406;-4.514;2023-04-24T02:23:31;0.00;0.00;0.00
73749;PMS7003;62058;48.406;-4.514;2023-04-24T02:25:56;1.00;1.00;1.00
73749;PMS7003;62058;48.406;-4.514;2023-04-24T02:28:21;0.00;0.00;0.00
73749;PMS7003;62058;48.406;-4.514;2023-04-24T02:30:46;6.00;1.00;1.00
73749;PMS7003;62058;48.406;-4.514;2023-04-24T02:33:12;1.00;1.00;1.00
73749;PMS7003;62058;48.406;-4.514;2023-04-24T02:35:37;4.00;0.00;0.00
73749;PMS7003;62058;48.406;-4.514;2023-04-24T02:38:02;3.33;1.00;1.00
73749;PMS7003;62058;48.406;-4.514;2023-04-24T02:40:28;4.75;0.25;0.25
73749;PMS7003;62058;48.406;-4.514;2023-04-24T02:42:53;1.00;1.00;1.00
73749;PMS7003;62058;48.406;-4.514;2023-04-24T02:45:18;6.00;0.00;0.00
73749;PMS7003;62058;48.406;-4.514;2023-04-24T02:47:43;1.00;1.00;1.00
73749;PMS7003;62058;48.406;-4.514;2023-04-24T02:50:09;1.00;1.00;1.00
73749;PMS7003;62058;48.406;-4.514;2023-04-24T02:52:34;1.50;0.00;0.00
73749;PMS7003;62058;48.406;-4.514;2023-04-24T02:54:59;0.50;0.50;0.50
73749;PMS7003;62058;48.406;-4.514;2023-04-24T02:57:25;3.00;1.00;1.00
73749;PMS7003;62058;48.406;-4.514;2023-04-24T02:59:50;1.00;0.00;0.00
73749;PMS7003;62058;48.406;-4.514;2023-04-24T03:02:15;3.67;1.00;1.00
73749;PMS7003;62058;48.406;-4.514;2023-04-24T03:04:40;3.00;0.00;0.00
73749;PMS7003;62058;48.406;-4.514;2023-04-24T03:07:07;2.50;1.00;1.00
73749;PMS7003;62058;48.406;-4.514;2023-04-24T03:09:33;4.00;1.00;1.00
73749;PMS7003;62058;48.406;-4.514;2023-04-24T03:11:58;3.00;0.67;0.67
73749;PMS7003;62058;48.406;-4.514;2023-04-24T03:14:23;0.00;0.00;0.00
73749;PMS7003;62058;48.406;-4.514;2023-04-24T03:16:48;3.67;2.33;2.33
73749;PMS7003;62058;48.406;-4.514;2023-04-24T03:19:13;0.00;0.00;0.00
73749;PMS7003;62058;48.406;-4.514;2023-04-24T03:21:39;4.00;1.00;1.00
73749;PMS7003;62058;48.406;-4.514;2023-04-24T03:24:06;0.50;0.25;0.00
73749;PMS7003;62058;48.406;-4.514;2023-04-24T03:26:31;1.00;0.50;0.50
73749;PMS7003;62058;48.406;-4.514;2023-04-24T03:28:56;1.67;0.33;0.33
73749;PMS7003;62058;48.406;-4.514;2023-04-24T03:31:22;1.00;1.00;1.00
73749;PMS7003;62058;48.406;-4.514;2023-04-24T03:33:47;2.33;0.00;0.00
73749;PMS7003;62058;48.406;-4.514;2023-04-24T03:36:12;3.00;0.00;0.00
73749;PMS7003;62058;48.406;-4.514;2023-04-24T03:38:37;1.00;1.00;1.00
73749;PMS7003;62058;48.406;-4.514;2023-04-24T03:41:02;0.33;0.00;0.00
73749;PMS7003;62058;48.406;-4.514;2023-04-24T03:43:28;2.67;1.00;1.00
73749;PMS7003;62058;48.406;-4.514;2023-04-24T03:45:53;4.00;1.00;1.00
73749;PMS7003;62058;48.406;-4.514;2023-04-24T03:48:18;2.00;1.00;1.00
73749;PMS7003;62058;48.406;-4.514;2023-04-24T03:50:44;5.33;1.00;1.00
73749;PMS7003;62058;48.406;-4.514;2023-04-24T03:53:09;4.00;0.50;0.50
73749;PMS7003;62058;48.406;-4.514;2023-04-24T03:55:34;0.75;0.25;0.25
73749;PMS7003;62058;48.406;-4.514;2023-04-24T03:58:00;8.50;0.00;0.00
73749;PMS7003;62058;48.406;-4.514;2023-04-24T04:00:25;0.00;0.00;0.00
73749;PMS7003;62058;48.406;-4.514;2023-04-24T04:02:51;4.75;0.25;0.25
73749;PMS7003;62058;48.406;-4.514;2023-04-24T04:05:16;1.00;1.00;1.00
73749;PMS7003;62058;48.406;-4.514;2023-04-24T04:07:41;1.00;1.00;1.00
73749;PMS7003;62058;48.406;-4.514;2023-04-24T04:10:06;1.00;1.00;1.00
73749;PMS7003;62058;48.406;-4.514;2023-04-24T04:12:32;3.75;0.00;0.00
73749;PMS7003;62058;48.406;-4.514;2023-04-24T04:14:58;1.75;0.00;0.00
73749;PMS7003;62058;48.406;-4.514;2023-04-24T04:17:23;1.00;1.00;1.00
73749;PMS7003;62058;48.406;-4.514;2023-04-24T04:19:48;3.33;1.00;1.00
73749;PMS7003;62058;48.406;-4.514;2023-04-24T04:22:13;3.67;1.33;1.33
73749;PMS7003;62058;48.406;-4.514;2023-04-24T04:24:38;1.00;1.00;1.00
73749;PMS7003;62058;48.406;-4.514;2023-04-24T04:27:05;1.00;1.00;1.00
73749;PMS7003;62058;48.406;-4.514;2023-04-24T04:29:30;1.00;0.00;0.00
73749;PMS7003;62058;48.406;-4.514;2023-04-24T04:32:00;0.25;0.25;0.25
73749;PMS7003;62058;48.406;-4.514;2023-04-24T04:34:26;1.00;1.00;0.75
73749;PMS7003;62058;48.406;-4.514;2023-04-24T04:36:51;7.00;0.33;0.00
73749;PMS7003;62058;48.406;-4.514;2023-04-24T04:39:17;1.00;1.00;1.00
73749;PMS7003;62058;48.406;-4.514;2023-04-24T04:41:43;6.50;0.00;0.00
73749;PMS7003;62058;48.406;-4.514;2023-04-24T04:44:09;6.00;0.25;0.25
73749;PMS7003;62058;48.406;-4.514;2023-04-24T04:46:34;2.50;0.25;0.25
73749;PMS7003;62058;48.406;-4.514;2023-04-24T04:49:02;1.00;1.00;1.00
73749;PMS7003;62058;48.406;-4.514;2023-04-24T04:51:27;0.00;0.00;0.00
73749;PMS7003;62058;48.406;-4.514;2023-04-24T04:53:53;1.00;1.00;0.33
73749;PMS7003;62058;48.406;-4.514;2023-04-24T04:56:18;0.50;0.25;0.25
73749;PMS7003;62058;48.406;-4.514;2023-04-24T04:58:43;1.00;0.75;0.75
73749;PMS7003;62058;48.406;-4.514;2023-04-24T05:01:09;4.00;3.00;3.00
73749;PMS7003;62058;48.406;-4.514;2023-04-24T05:03:34;0.67;0.67;0.67
73749;PMS7003;62058;48.406;-4.514;2023-04-24T05:05:59;3.50;1.00;1.00
73749;PMS7003;62058;48.406;-4.514;2023-04-24T05:08:24;4.50;1.50;1.50
73749;PMS7003;62058;48.406;-4.514;2023-04-24T05:10:50;1.00;1.00;1.00
73749;PMS7003;62058;48.406;-4.514;2023-04-24T05:13:15;1.00;1.00;1.00
73749;PMS7003;62058;48.406;-4.514;2023-04-24T05:15:40;0.33;0.33;0.33
73749;PMS7003;62058;48.406;-4.514;2023-04-24T05:18:05;1.00;0.00;0.00
73749;PMS7003;62058;48.406;-4.514;2023-04-24T05:20:31;0.67;0.00;0.00
73749;PMS7003;62058;48.406;-4.514;2023-04-24T05:22:56;2.00;0.67;0.67
73749;PMS7003;62058;48.406;-4.514;2023-04-24T05:25:21;3.33;1.00;1.00
73749;PMS7003;62058;48.406;-4.514;2023-04-24T05:27:46;1.50;1.00;1.00
73749;PMS7003;62058;48.406;-4.514;2023-04-24T05:30:12;3.00;3.00;3.00
73749;PMS7003;62058;48.406;-4.514;2023-04-24T05:32:37;4.50;1.00;1.00
73749;PMS7003;62058;48.406;-4.514;2023-04-24T05:35:02;4.00;3.00;3.00
73749;PMS7003;62058;48.406;-4.514;2023-04-24T05:37:28;3.75;3.00;3.00
73749;PMS7003;62058;48.406;-4.514;2023-04-24T05:39:53;4.67;4.67;4.00
73749;PMS7003;62058;48.406;-4.514;2023-04-24T05:42:18;17.75;10.50;10.00
73749;PMS7003;62058;48.406;-4.514;2023-04-24T05:44:43;25.00;12.00;11.33
73749;PMS7003;62058;48.406;-4.514;2023-04-24T05:47:09;7.00;7.00;7.00
73749;PMS7003;62058;48.406;-4.514;2023-04-24T05:49:34;5.33;5.33;5.33
73749;PMS7003;62058;48.406;-4.514;2023-04-24T05:51:59;5.50;3.00;3.00
73749;PMS7003;62058;48.406;-4.514;2023-04-24T05:54:24;1.00;1.00;1.00
73749;PMS7003;62058;48.406;-4.514;2023-04-24T05:56:50;2.00;2.00;2.00
73749;PMS7003;62058;48.406;-4.514;2023-04-24T05:59:15;4.75;3.25;3.25
73749;PMS7003;62058;48.406;-4.514;2023-04-24T06:01:41;6.50;4.00;4.00
73749;PMS7003;62058;48.406;-4.514;2023-04-24T06:04:06;3.00;3.00;3.00
73749;PMS7003;62058;48.406;-4.514;2023-04-24T06:06:32;4.50;4.00;4.00
73749;PMS7003;62058;48.406;-4.514;2023-04-24T06:08:57;7.25;5.00;5.00
73749;PMS7003;62058;48.406;-4.514;2023-04-24T06:11:23;4.00;3.00;3.00
73749;PMS7003;62058;48.406;-4.514;2023-04-24T06:13:49;9.00;4.00;4.00
73749;PMS7003;62058;48.406;-4.514;2023-04-24T06:16:15;2.50;2.50;2.50
73749;PMS7003;62058;48.406;-4.514;2023-04-24T06:18:40;2.50;1.50;1.50
73749;PMS7003;62058;48.406;-4.514;2023-04-24T06:21:05;4.67;3.00;3.00
73749;PMS7003;62058;48.406;-4.514;2023-04-24T06:23:31;9.50;5.00;4.50
73749;PMS7003;62058;48.406;-4.514;2023-04-24T06:25:58;5.75;3.50;3.50
73749;PMS7003;62058;48.406;-4.514;2023-04-24T06:28:23;3.25;3.00;3.00
73749;PMS7003;62058;48.406;-4.514;2023-04-24T06:30:48;6.00;4.00;3.33
73749;PMS7003;62058;48.406;-4.514;2023-04-24T06:33:13;4.00;1.00;1.00
73749;PMS7003;62058;48.406;-4.514;2023-04-24T06:35:39;8.00;4.50;4.50
73749;PMS7003;62058;48.406;-4.514;2023-04-24T06:38:04;8.67;3.00;3.00
73749;PMS7003;62058;48.406;-4.514;2023-04-24T06:40:29;3.25;1.50;1.50
73749;PMS7003;62058;48.406;-4.514;2023-04-24T06:42:55;4.00;3.00;3.00
73749;PMS7003;62058;48.406;-4.514;2023-04-24T06:45:20;3.00;2.00;2.00
73749;PMS7003;62058;48.406;-4.514;2023-04-24T06:47:46;5.33;3.67;3.33
73749;PMS7003;62058;48.406;-4.514;2023-04-24T06:50:11;1.00;1.00;1.00
73749;PMS7003;62058;48.406;-4.514;2023-04-24T06:52:36;13.33;10.67;10.00
73749;PMS7003;62058;48.406;-4.514;2023-04-24T06:55:02;5.00;4.00;4.00
73749;PMS7003;62058;48.406;-4.514;2023-04-24T06:57:28;13.00;8.50;8.00
73749;PMS7003;62058;48.406;-4.514;2023-04-24T06:59:53;0.75;0.75;0.75
73749;PMS7003;62058;48.406;-4.514;2023-04-24T07:02:19;5.50;3.75;3.50
73749;PMS7003;62058;48.406;-4.514;2023-04-24T07:04:44;3.75;3.25;3.25
73749;PMS7003;62058;48.406;-4.514;2023-04-24T07:07:12;6.00;4.00;4.00
73749;PMS7003;62058;48.406;-4.514;2023-04-24T07:09:39;10.25;6.25;4.25
73749;PMS7003;62058;48.406;-4.514;2023-04-24T07:12:07;3.25;3.25;3.25
73749;PMS7003;62058;48.406;-4.514;2023-04-24T07:14:33;8.50;4.75;4.50
73749;PMS7003;62058;48.406;-4.514;2023-04-24T07:16:59;6.33;3.33;2.67
73749;PMS7003;62058;48.406;-4.514;2023-04-24T07:19:24;2.00;1.00;1.00
73749;PMS7003;62058;48.406;-4.514;2023-04-24T07:21:49;7.00;3.50;3.50
73749;PMS7003;62058;48.406;-4.514;2023-04-24T07:24:15;3.75;3.75;3.75
73749;PMS7003;62058;48.406;-4.514;2023-04-24T07:26:40;10.50;1.00;1.00
73749;PMS7003;62058;48.406;-4.514;2023-04-24T07:29:06;9.25;4.75;4.25
73749;PMS7003;62058;48.406;-4.514;2023-04-24T07:31:31;10.00;5.25;5.00
73749;PMS7003;62058;48.406;-4.514;2023-04-24T07:33:56;7.00;4.00;3.75
73749;PMS7003;62058;48.406;-4.514;2023-04-24T07:36:23;6.00;1.25;1.25
73749;PMS7003;62058;48.406;-4.514;2023-04-24T07:38:49;7.25;3.25;2.75
73749;PMS7003;62058;48.406;-4.514;2023-04-24T07:41:14;5.00;3.50;3.50
73749;PMS7003;62058;48.406;-4.514;2023-04-24T07:43:39;5.50;2.25;2.00
73749;PMS7003;62058;48.406;-4.514;2023-04-24T07:46:05;0.25;0.00;0.00
73749;PMS7003;62058;48.406;-4.514;2023-04-24T07:48:30;1.00;1.00;1.00
73749;PMS7003;62058;48.406;-4.514;2023-04-24T07:50:56;7.67;2.33;2.33
73749;PMS7003;62058;48.406;-4.514;2023-04-24T07:53:21;3.25;1.25;1.25
73749;PMS7003;62058;48.406;-4.514;2023-04-24T07:55:46;5.00;3.25;3.00
73749;PMS7003;62058;48.406;-4.514;2023-04-24T07:58:12;2.33;1.00;1.00
73749;PMS7003;62058;48.406;-4.514;2023-04-24T08:00:37;2.75;2.75;2.75
73749;PMS7003;62058;48.406;-4.514;2023-04-24T08:03:02;4.67;2.00;2.00
73749;PMS7003;62058;48.406;-4.514;2023-04-24T08:05:27;1.00;1.00;1.00
73749;PMS7003;62058;48.406;-4.514;2023-04-24T08:07:53;3.00;1.00;1.00
73749;PMS7003;62058;48.406;-4.514;2023-04-24T08:10:19;3.00;2.00;2.00
73749;PMS7003;62058;48.406;-4.514;2023-04-24T08:12:45;3.25;2.50;2.00
73749;PMS7003;62058;48.406;-4.514;2023-04-24T08:15:10;6.00;2.00;2.00
73749;PMS7003;62058;48.406;-4.514;2023-04-24T08:17:35;2.67;2.00;2.00
73749;PMS7003;62058;48.406;-4.514;2023-04-24T08:20:01;6.00;2.00;2.00
73749;PMS7003;62058;48.406;-4.514;2023-04-24T08:22:29;1.00;0.25;0.25
73749;PMS7003;62058;48.406;-4.514;2023-04-24T08:24:55;3.75;0.75;0.75
73749;PMS7003;62058;48.406;-4.514;2023-04-24T08:27:21;5.00;1.25;1.00
73749;PMS7003;62058;48.406;-4.514;2023-04-24T08:29:47;2.33;1.33;1.33
73749;PMS7003;62058;48.406;-4.514;2023-04-24T08:32:12;2.33;1.00;1.00
73749;PMS7003;62058;48.406;-4.514;2023-04-24T08:34:37;3.33;1.00;1.00
73749;PMS7003;62058;48.406;-4.514;2023-04-24T08:37:02;6.00;2.00;2.00
73749;PMS7003;62058;48.406;-4.514;2023-04-24T08:39:27;1.75;0.75;0.75
73749;PMS7003;62058;48.406;-4.514;2023-04-24T08:41:53;0.25;0.25;0.25
73749;PMS7003;62058;48.406;-4.514;2023-04-24T08:44:18;2.00;1.00;1.00
73749;PMS7003;62058;48.406;-4.514;2023-04-24T08:46:44;4.00;0.75;0.75
73749;PMS7003;62058;48.406;-4.514;2023-04-24T08:49:15;0.50;0.50;0.50
73749;PMS7003;62058;48.406;-4.514;2023-04-24T08:51:44;1.75;1.75;1.00
73749;PMS7003;62058;48.406;-4.514;2023-04-24T08:54:10;7.00;1.75;1.75
73749;PMS7003;62058;48.406;-4.514;2023-04-24T08:56:36;1.50;1.00;1.00
73749;PMS7003;62058;48.406;-4.514;2023-04-24T08:59:04;2.25;1.00;1.00
73749;PMS7003;62058;48.406;-4.514;2023-04-24T09:01:30;2.00;2.00;2.00
73749;PMS7003;62058;48.406;-4.514;2023-04-24T09:03:56;4.00;1.00;1.00
73749;PMS7003;62058;48.406;-4.514;2023-04-24T09:06:22;3.00;1.00;1.00
73749;PMS7003;62058;48.406;-4.514;2023-04-24T09:08:48;2.25;2.00;2.00
73749;PMS7003;62058;48.406;-4.514;2023-04-24T09:11:16;4.00;2.00;2.00
73749;PMS7003;62058;48.406;-4.514;2023-04-24T09:13:41;5.25;2.25;2.00
73749;PMS7003;62058;48.406;-4.514;2023-04-24T09:16:08;2.00;2.00;2.00
73749;PMS7003;62058;48.406;-4.514;2023-04-24T09:18:33;2.25;2.25;2.25
73749;PMS7003;62058;48.406;-4.514;2023-04-24T09:21:03;1.25;1.25;1.25
73749;PMS7003;62058;48.406;-4.514;2023-04-24T09:23:30;0.50;0.50;0.50
73749;PMS7003;62058;48.406;-4.514;2023-04-24T09:25:56;3.50;1.00;1.00
73749;PMS7003;62058;48.406;-4.514;2023-04-24T09:28:26;8.50;1.00;1.00
73749;PMS7003;62058;48.406;-4.514;2023-04-24T09:33:29;3.00;3.00;3.00
73749;PMS7003;62058;48.406;-4.514;2023-04-24T09:35:54;5.50;2.00;2.00
73749;PMS7003;62058;48.406;-4.514;2023-04-24T09:38:20;3.00;1.00;1.00
73749;PMS7003;62058;48.406;-4.514;2023-04-24T09:40:55;2.50;2.00;2.00
73749;PMS7003;62058;48.406;-4.514;2023-04-24T09:43:20;3.67;1.00;1.00
73749;PMS7003;62058;48.406;-4.514;2023-04-24T09:45:45;1.75;1.75;1.75
73749;PMS7003;62058;48.406;-4.514;2023-04-24T09:48:10;3.00;2.00;1.33
73749;PMS7003;62058;48.406;-4.514;2023-04-24T09:50:36;2.50;0.00;0.00
73749;PMS7003;62058;48.406;-4.514;2023-04-24T09:53:02;2.50;1.50;1.50
73749;PMS7003;62058;48.406;-4.514;2023-04-24T09:55:27;2.75;0.00;0.00
73749;PMS7003;62058;48.406;-4.514;2023-04-24T09:57:54;5.75;1.25;1.25
73749;PMS7003;62058;48.406;-4.514;2023-04-24T10:00:37;0.50;0.50;0.50
73749;PMS7003;62058;48.406;-4.514;2023-04-24T10:03:03;2.00;0.25;0.25
73749;PMS7003;62058;48.406;-4.514;2023-04-24T10:05:30;6.25;1.50;1.50
73749;PMS7003;62058;48.406;-4.514;2023-04-24T10:07:56;1.50;1.00;1.00
73749;PMS7003;62058;48.406;-4.514;2023-04-24T10:10:22;1.00;1.00;1.00
73749;PMS7003;62058;48.406;-4.514;2023-04-24T10:12:47;3.25;1.00;1.00
73749;PMS7003;62058;48.406;-4.514;2023-04-24T10:15:13;1.50;1.00;1.00
73749;PMS7003;62058;48.406;-4.514;2023-04-24T10:17:39;1.25;1.25;1.25
73749;PMS7003;62058;48.406;-4.514;2023-04-24T10:20:04;5.75;2.00;2.00
73749;PMS7003;62058;48.406;-4.514;2023-04-24T10:22:31;2.00;0.00;0.00
73749;PMS7003;62058;48.406;-4.514;2023-04-24T10:24:57;0.25;0.25;0.25
73749;PMS7003;62058;48.406;-4.514;2023-04-24T10:27:23;1.25;0.50;0.50
73749;PMS7003;62058;48.406;-4.514;2023-04-24T10:29:50;1.75;1.00;0.50
73749;PMS7003;62058;48.406;-4.514;2023-04-24T10:32:18;4.00;1.75;1.75
73749;PMS7003;62058;48.406;-4.514;2023-04-24T10:34:43;4.00;1.25;1.25
73749;PMS7003;62058;48.406;-4.514;2023-04-24T10:37:08;3.00;1.00;1.00
73749;PMS7003;62058;48.406;-4.514;2023-04-24T10:39:33;1.50;0.50;0.50
73749;PMS7003;62058;48.406;-4.514;2023-04-24T10:42:00;4.50;1.00;1.00
73749;PMS7003;62058;48.406;-4.514;2023-04-24T10:44:25;5.50;4.00;2.75
73749;PMS7003;62058;48.406;-4.514;2023-04-24T10:47:00;4.25;2.25;2.25
73749;PMS7003;62058;48.406;-4.514;2023-04-24T10:49:29;1.50;1.00;1.00
73749;PMS7003;62058;48.406;-4.514;2023-04-24T10:51:59;1.00;1.00;1.00
73749;PMS7003;62058;48.406;-4.514;2023-04-24T10:54:26;3.50;0.00;0.00
73749;PMS7003;62058;48.406;-4.514;2023-04-24T10:56:51;3.00;2.00;2.00
73749;PMS7003;62058;48.406;-4.514;2023-04-24T10:59:27;3.50;2.00;2.00
73749;PMS7003;62058;48.406;-4.514;2023-04-24T11:01:53;1.00;1.00;1.00
73749;PMS7003;62058;48.406;-4.514;2023-04-24T11:04:28;3.00;1.50;1.25
73749;PMS7003;62058;48.406;-4.514;2023-04-24T11:06:53;1.50;1.00;1.00
73749;PMS7003;62058;48.406;-4.514;2023-04-24T11:09:19;3.25;1.00;1.00
73749;PMS7003;62058;48.406;-4.514;2023-04-24T11:11:46;4.25;1.50;1.50
73749;PMS7003;62058;48.406;-4.514;2023-04-24T11:14:14;0.50;0.50;0.50
73749;PMS7003;62058;48.406;-4.514;2023-04-24T11:16:52;1.00;1.00;1.00
73749;PMS7003;62058;48.406;-4.514;2023-04-24T11:19:19;0.75;0.00;0.00
73749;PMS7003;62058;48.406;-4.514;2023-04-24T11:26:55;0.00;0.00;0.00
73749;PMS7003;62058;48.406;-4.514;2023-04-24T11:29:21;3.50;1.00;1.00
73749;PMS7003;62058;48.406;-4.514;2023-04-24T11:31:47;2.25;0.00;0.00
73749;PMS7003;62058;48.406;-4.514;2023-04-24T11:34:16;0.75;0.00;0.00
73749;PMS7003;62058;48.406;-4.514;2023-04-24T11:36:43;2.75;1.50;1.50
73749;PMS7003;62058;48.406;-4.514;2023-04-24T11:39:08;0.00;0.00;0.00
73749;PMS7003;62058;48.406;-4.514;2023-04-24T11:41:35;2.75;1.25;1.25
73749;PMS7003;62058;48.406;-4.514;2023-04-24T11:44:00;1.75;1.50;1.25
73749;PMS7003;62058;48.406;-4.514;2023-04-24T11:46:27;1.50;0.75;0.75
73749;PMS7003;62058;48.406;-4.514;2023-04-24T11:48:52;2.00;1.50;1.50
73749;PMS7003;62058;48.406;-4.514;2023-04-24T11:51:17;0.50;0.50;0.50
73749;PMS7003;62058;48.406;-4.514;2023-04-24T11:53:43;1.00;1.00;1.00
73749;PMS7003;62058;48.406;-4.514;2023-04-24T11:56:08;2.67;1.00;1.00
73749;PMS7003;62058;48.406;-4.514;2023-04-24T11:58:38;0.50;0.50;0.50
73749;PMS7003;62058;48.406;-4.514;2023-04-24T12:01:04;1.75;1.00;1.00
73749;PMS7003;62058;48.406;-4.514;2023-04-24T12:03:29;2.25;1.50;1.25
73749;PMS7003;62058;48.406;-4.514;2023-04-24T12:06:07;3.00;0.00;0.00
73749;PMS7003;62058;48.406;-4.514;2023-04-24T12:08:33;0.00;0.00;0.00
73749;PMS7003;62058;48.406;-4.514;2023-04-24T12:11:02;1.25;1.25;1.25
73749;PMS7003;62058;48.406;-4.514;2023-04-24T12:13:27;0.00;0.00;0.00
73749;PMS7003;62058;48.406;-4.514;2023-04-24T12:15:53;1.75;1.00;1.00
73749;PMS7003;62058;48.406;-4.514;2023-04-24T12:18:18;1.00;1.00;1.00
73749;PMS7003;62058;48.406;-4.514;2023-04-24T12:20:43;0.75;0.75;0.75
73749;PMS7003;62058;48.406;-4.514;2023-04-24T12:23:09;0.33;0.00;0.00
73749;PMS7003;62058;48.406;-4.514;2023-04-24T12:25:34;0.00;0.00;0.00
73749;PMS7003;62058;48.406;-4.514;2023-04-24T12:30:28;0.50;0.50;0.50
73749;PMS7003;62058;48.406;-4.514;2023-04-24T12:32:54;1.00;1.00;1.00
73749;PMS7003;62058;48.406;-4.514;2023-04-24T12:35:21;0.25;0.25;0.25
73749;PMS7003;62058;48.406;-4.514;2023-04-24T12:37:46;8.75;1.00;1.00
73749;PMS7003;62058;48.406;-4.514;2023-04-24T12:40:12;0.00;0.00;0.00
73749;PMS7003;62058;48.406;-4.514;2023-04-24T12:42:55;3.00;1.25;1.25
73749;PMS7003;62058;48.406;-4.514;2023-04-24T12:45:20;2.50;0.75;0.75
73749;PMS7003;62058;48.406;-4.514;2023-04-24T12:47:48;0.75;0.00;0.00
73749;PMS7003;62058;48.406;-4.514;2023-04-24T12:50:14;3.00;0.00;0.00
73749;PMS7003;62058;48.406;-4.514;2023-04-24T12:52:40;1.75;0.50;0.50
73749;PMS7003;62058;48.406;-4.514;2023-04-24T12:55:05;0.25;0.25;0.25
73749;PMS7003;62058;48.406;-4.514;2023-04-24T12:57:33;3.75;1.00;1.00
73749;PMS7003;62058;48.406;-4.514;2023-04-24T12:59:58;3.00;1.00;1.00
73749;PMS7003;62058;48.406;-4.514;2023-04-24T13:02:24;1.33;0.67;0.33
73749;PMS7003;62058;48.406;-4.514;2023-04-24T13:04:50;1.00;0.00;0.00
73749;PMS7003;62058;48.406;-4.514;2023-04-24T13:07:15;0.00;0.00;0.00
73749;PMS7003;62058;48.406;-4.514;2023-04-24T13:09:42;0.00;0.00;0.00
73749;PMS7003;62058;48.406;-4.514;2023-04-24T13:12:08;2.25;0.25;0.25
73749;PMS7003;62058;48.406;-4.514;2023-04-24T13:14:33;2.00;0.75;0.75
73749;PMS7003;62058;48.406;-4.514;2023-04-24T13:16:58;0.50;0.50;0.50
73749;PMS7003;62058;48.406;-4.514;2023-04-24T13:19:24;2.00;1.50;1.25
73749;PMS7003;62058;48.406;-4.514;2023-04-24T13:21:50;0.50;0.00;0.00
73749;PMS7003;62058;48.406;-4.514;2023-04-24T13:24:15;1.67;0.00;0.00
73749;PMS7003;62058;48.406;-4.514;2023-04-24T13:26:40;1.00;0.00;0.00
73749;PMS7003;62058;48.406;-4.514;2023-04-24T13:29:06;0.00;0.00;0.00
73749;PMS7003;62058;48.406;-4.514;2023-04-24T13:31:31;0.00;0.00;0.00
73749;PMS7003;62058;48.406;-4.514;2023-04-24T13:33:56;0.00;0.00;0.00
73749;PMS7003;62058;48.406;-4.514;2023-04-24T13:36:21;0.50;0.00;0.00
73749;PMS7003;62058;48.406;-4.514;2023-04-24T13:38:47;0.00;0.00;0.00
73749;PMS7003;62058;48.406;-4.514;2023-04-24T13:41:12;1.00;0.00;0.00
73749;PMS7003;62058;48.406;-4.514;2023-04-24T13:43:37;0.67;0.00;0.00
73749;PMS7003;62058;48.406;-4.514;2023-04-24T13:46:02;0.67;0.00;0.00
73749;PMS7003;62058;48.406;-4.514;2023-04-24T13:48:28;1.00;0.00;0.00
73749;PMS7003;62058;48.406;-4.514;2023-04-24T13:50:53;2.75;0.00;0.00
73749;PMS7003;62058;48.406;-4.514;2023-04-24T13:53:18;0.33;0.00;0.00
73749;PMS7003;62058;48.406;-4.514;2023-04-24T13:55:44;0.00;0.00;0.00
73749;PMS7003;62058;48.406;-4.514;2023-04-24T13:58:09;0.00;0.00;0.00
73749;PMS7003;62058;48.406;-4.514;2023-04-24T14:00:35;0.00;0.00;0.00
73749;PMS7003;62058;48.406;-4.514;2023-04-24T14:03:00;0.00;0.00;0.00
73749;PMS7003;62058;48.406;-4.514;2023-04-24T14:05:26;0.00;0.00;0.00
73749;PMS7003;62058;48.406;-4.514;2023-04-24T14:07:51;0.00;0.00;0.00
73749;PMS7003;62058;48.406;-4.514;2023-04-24T14:10:16;3.00;0.00;0.00
73749;PMS7003;62058;48.406;-4.514;2023-04-24T14:12:41;0.67;0.00;0.00